PWSweather.com
Personal Weather Stations
Station Observations
79674
AfterstegDE 79674

AfterstegDE 79674

Lat: 47.84344, Lon: 7.92844

Elevation: 809

Station Type: Davis Vantage 2 Aktive

www.wetter-aftersteg.de

High Low Average
Temperature 58.3°F14.6°F 48.4°F9.1°F 54.5°F12.5°F
Dew Point 55.9°F13.3°F 47.5°F8.6°F 53.2°F11.8°F
Winds 2.9 mph -4.7 mph - Calm Calm 0.3 mph 0.5 mph
Wind Gusts 6.0 mph9.7 mph -- 0.3 mph0.5 mph
Humidity 98% 90% 96%
Pressure 30.35 in1027.80 in 30.12 in1020.00 in -
Precipitation 4.34 in110.20 in - -
Hour Temp Dew Point Humidity Winds Wind Gusts Pressure Precip Precip Rate Daily Precip Total
12:02 AM 54.9°F12.7°C 54.0°F12.2°C 97% Calm Calm -- 30.15 in1021.0 mb - 0.00 in0.0 mm 0.00 in0.0 mm
12:07 AM 54.9°F12.7°C 54.0°F12.2°C 97% Calm Calm -- 30.15 in1021.0 mb - 0.00 in0.0 mm 0.00 in0.0 mm
12:12 AM 54.7°F12.6°C 53.8°F12.1°C 97% Calm Calm -- 30.15 in1021.0 mb - 0.00 in0.0 mm 0.00 in0.0 mm
12:17 AM 54.7°F12.6°C 53.8°F12.1°C 97% Calm Calm -- 30.15 in1021.0 mb - 0.00 in0.0 mm 0.00 in0.0 mm
12:22 AM 54.9°F12.7°C 54.0°F12.2°C 97% Calm Calm -- 30.15 in1021.0 mb - 0.00 in0.0 mm 0.00 in0.0 mm
12:27 AM 55.0°F12.8°C 54.1°F12.3°C 97% Calm Calm -- 30.15 in1021.0 mb - 0.00 in0.0 mm 0.00 in0.0 mm
12:32 AM 54.7°F12.6°C 53.8°F12.1°C 97% Calm Calm -- 30.15 in1021.0 mb - 0.00 in0.0 mm 0.00 in0.0 mm
12:37 AM 54.7°F12.6°C 53.8°F12.1°C 97% Calm Calm -- 30.14 in1020.7 mb - 0.00 in0.0 mm 0.00 in0.0 mm
12:42 AM 54.7°F12.6°C 53.8°F12.1°C 97% Calm Calm -- 30.14 in1020.7 mb - 0.00 in0.0 mm 0.00 in0.0 mm
12:47 AM 54.7°F12.6°C 53.8°F12.1°C 97% Calm Calm -- 30.14 in1020.7 mb - 0.00 in0.0 mm 0.00 in0.0 mm
12:52 AM 54.7°F12.6°C 53.8°F12.1°C 97% Calm Calm -- 30.14 in1020.7 mb - 0.00 in0.0 mm 0.00 in0.0 mm
12:57 AM 54.9°F12.7°C 54.0°F12.2°C 97% Calm Calm -- 30.14 in1020.7 mb - 0.00 in0.0 mm 0.00 in0.0 mm
01:02 AM 54.7°F12.6°C 53.8°F12.1°C 97% Calm Calm -- 30.14 in1020.7 mb - 0.00 in0.0 mm 0.00 in0.0 mm
01:07 AM 54.7°F12.6°C 53.8°F12.1°C 97% Calm Calm -- 30.14 in1020.7 mb - 0.00 in0.0 mm 0.00 in0.0 mm
01:12 AM 54.7°F12.6°C 53.8°F12.1°C 97% Calm Calm -- 30.14 in1020.7 mb - 0.00 in0.0 mm 0.00 in0.0 mm
01:17 AM 54.7°F12.6°C 53.8°F12.1°C 97% Calm Calm -- 30.14 in1020.7 mb - 0.00 in0.0 mm 0.00 in0.0 mm
01:22 AM 54.7°F12.6°C 53.8°F12.1°C 97% Calm Calm -- 30.14 in1020.7 mb - 0.00 in0.0 mm 0.00 in0.0 mm
01:27 AM 54.7°F12.6°C 54.1°F12.3°C 98% Calm Calm -- 30.14 in1020.7 mb - 0.00 in0.0 mm 0.00 in0.0 mm
01:32 AM 54.7°F12.6°C 54.1°F12.3°C 98% Calm Calm -- 30.14 in1020.7 mb - 0.00 in0.0 mm 0.00 in0.0 mm
01:37 AM 54.7°F12.6°C 54.1°F12.3°C 98% Calm Calm -- 30.14 in1020.7 mb - 0.00 in0.0 mm 0.00 in0.0 mm
01:42 AM 54.9°F12.7°C 54.3°F12.4°C 98% Calm Calm -- 30.15 in1021.0 mb - 0.00 in0.0 mm 0.00 in0.0 mm
01:47 AM 54.7°F12.6°C 54.1°F12.3°C 98% Calm Calm -- 30.14 in1020.7 mb - 0.00 in0.0 mm 0.00 in0.0 mm
01:52 AM 54.7°F12.6°C 54.1°F12.3°C 98% Calm Calm -- 30.14 in1020.7 mb - 0.00 in0.0 mm 0.00 in0.0 mm
01:57 AM 54.7°F12.6°C 54.1°F12.3°C 98% Calm Calm -- 30.14 in1020.7 mb - 0.00 in0.0 mm 0.00 in0.0 mm
02:02 AM 54.7°F12.6°C 54.1°F12.3°C 98% Calm Calm -- 30.14 in1020.7 mb - 0.00 in0.0 mm 0.00 in0.0 mm
02:07 AM 54.7°F12.6°C 54.1°F12.3°C 98% Calm Calm -- 30.14 in1020.7 mb - 0.00 in0.0 mm 0.00 in0.0 mm
02:12 AM 54.3°F12.4°C 53.4°F11.9°C 97% Calm Calm -- 30.14 in1020.7 mb - 0.00 in0.0 mm 0.00 in0.0 mm
02:17 AM 54.1°F12.3°C 53.6°F12.0°C 98% Calm Calm -- 30.13 in1020.3 mb - 0.00 in0.0 mm 0.00 in0.0 mm
02:22 AM 54.0°F12.2°C 53.1°F11.7°C 97% Calm Calm -- 30.13 in1020.3 mb - 0.00 in0.0 mm 0.00 in0.0 mm
02:27 AM 54.0°F12.2°C 53.1°F11.7°C 97% Calm Calm -- 30.13 in1020.3 mb - 0.00 in0.0 mm 0.00 in0.0 mm
02:32 AM 54.0°F12.2°C 53.4°F11.9°C 98% Calm Calm -- 30.12 in1020.0 mb - 0.00 in0.0 mm 0.00 in0.0 mm
02:37 AM 54.0°F12.2°C 53.1°F11.7°C 97% Calm Calm -- 30.13 in1020.3 mb - 0.00 in0.0 mm 0.00 in0.0 mm
02:42 AM 54.0°F12.2°C 53.4°F11.9°C 98% Calm Calm -- 30.12 in1020.0 mb - 0.00 in0.0 mm 0.00 in0.0 mm
02:47 AM 54.0°F12.2°C 53.1°F11.7°C 97% Calm Calm -- 30.12 in1020.0 mb - 0.00 in0.0 mm 0.00 in0.0 mm
02:52 AM 54.1°F12.3°C 53.6°F12.0°C 98% Calm Calm -- 30.12 in1020.0 mb - 0.00 in0.0 mm 0.00 in0.0 mm
02:57 AM 54.5°F12.5°C 54.0°F12.2°C 98% Calm Calm -- 30.12 in1020.0 mb - 0.00 in0.0 mm 0.00 in0.0 mm
03:02 AM 54.1°F12.3°C 53.6°F12.0°C 98% Calm Calm -- 30.13 in1020.3 mb - 0.00 in0.0 mm 0.00 in0.0 mm
03:07 AM 54.1°F12.3°C 53.6°F12.0°C 98% Calm Calm -- 30.14 in1020.7 mb - 0.00 in0.0 mm 0.00 in0.0 mm
03:12 AM 54.3°F12.4°C 53.8°F12.1°C 98% Calm Calm -- 30.13 in1020.3 mb - 0.00 in0.0 mm 0.00 in0.0 mm
03:17 AM 54.5°F12.5°C 54.0°F12.2°C 98% Calm Calm -- 30.13 in1020.3 mb - 0.00 in0.0 mm 0.00 in0.0 mm
03:22 AM 54.3°F12.4°C 53.8°F12.1°C 98% Calm Calm -- 30.13 in1020.3 mb - 0.00 in0.0 mm 0.00 in0.0 mm
03:27 AM 54.7°F12.6°C 54.1°F12.3°C 98% Calm Calm -- 30.13 in1020.3 mb - 0.00 in0.0 mm 0.00 in0.0 mm
03:32 AM 54.9°F12.7°C 54.3°F12.4°C 98% Calm Calm -- 30.13 in1020.3 mb - 0.00 in0.0 mm 0.00 in0.0 mm
03:37 AM 54.9°F12.7°C 54.3°F12.4°C 98% Calm Calm -- 30.13 in1020.3 mb - 0.00 in0.0 mm 0.00 in0.0 mm
03:42 AM 54.9°F12.7°C 54.3°F12.4°C 98% Calm Calm -- 30.13 in1020.3 mb - 0.00 in0.0 mm 0.00 in0.0 mm
03:47 AM 54.9°F12.7°C 54.3°F12.4°C 98% Calm Calm -- 30.14 in1020.7 mb - 0.00 in0.0 mm 0.00 in0.0 mm
03:52 AM 54.7°F12.6°C 54.1°F12.3°C 98% Calm Calm -- 30.14 in1020.7 mb - 0.00 in0.0 mm 0.00 in0.0 mm
03:57 AM 54.7°F12.6°C 54.1°F12.3°C 98% Calm Calm -- 30.13 in1020.3 mb - 0.00 in0.0 mm 0.00 in0.0 mm
04:02 AM 54.7°F12.6°C 54.1°F12.3°C 98% Calm Calm -- 30.13 in1020.3 mb - 0.00 in0.0 mm 0.00 in0.0 mm
04:07 AM 54.9°F12.7°C 54.3°F12.4°C 98% Calm Calm -- 30.13 in1020.3 mb - 0.00 in0.0 mm 0.00 in0.0 mm
04:12 AM 54.7°F12.6°C 54.1°F12.3°C 98% Calm Calm -- 30.13 in1020.3 mb - 0.00 in0.0 mm 0.00 in0.0 mm
04:17 AM 54.5°F12.5°C 54.0°F12.2°C 98% Calm Calm -- 30.13 in1020.3 mb - 0.00 in0.0 mm 0.00 in0.0 mm
04:22 AM 54.7°F12.6°C 54.1°F12.3°C 98% Calm Calm -- 30.13 in1020.3 mb - 0.00 in0.0 mm 0.00 in0.0 mm
04:27 AM 54.7°F12.6°C 54.1°F12.3°C 98% Calm Calm -- 30.13 in1020.3 mb - 0.00 in0.0 mm 0.00 in0.0 mm
04:32 AM 54.5°F12.5°C 54.0°F12.2°C 98% Calm Calm -- 30.13 in1020.3 mb - 0.00 in0.0 mm 0.00 in0.0 mm
04:37 AM 54.7°F12.6°C 54.1°F12.3°C 98% Calm Calm -- 30.13 in1020.3 mb - 0.00 in0.0 mm 0.00 in0.0 mm
04:42 AM 54.7°F12.6°C 54.1°F12.3°C 98% Calm Calm -- 30.13 in1020.3 mb - 0.00 in0.0 mm 0.00 in0.0 mm
04:47 AM 54.7°F12.6°C 54.1°F12.3°C 98% Calm Calm -- 30.13 in1020.3 mb - 0.00 in0.0 mm 0.00 in0.0 mm
04:52 AM 54.7°F12.6°C 54.1°F12.3°C 98% Calm Calm -- 30.13 in1020.3 mb - 0.00 in0.0 mm 0.00 in0.0 mm
04:57 AM 54.7°F12.6°C 54.1°F12.3°C 98% Calm Calm -- 30.13 in1020.3 mb - 0.00 in0.0 mm 0.00 in0.0 mm
05:02 AM 54.7°F12.6°C 54.1°F12.3°C 98% Calm Calm -- 30.13 in1020.3 mb - 0.00 in0.0 mm 0.00 in0.0 mm
05:07 AM 54.7°F12.6°C 54.1°F12.3°C 98% Calm Calm -- 30.13 in1020.3 mb - 0.00 in0.0 mm 0.00 in0.0 mm
05:12 AM 54.7°F12.6°C 54.1°F12.3°C 98% Calm Calm -- 30.13 in1020.3 mb - 0.00 in0.0 mm 0.00 in0.0 mm
05:17 AM 54.9°F12.7°C 54.3°F12.4°C 98% Calm Calm -- 30.12 in1020.0 mb - 0.00 in0.0 mm 0.00 in0.0 mm
05:22 AM 54.9°F12.7°C 54.3°F12.4°C 98% Calm Calm -- 30.12 in1020.0 mb - 0.00 in0.0 mm 0.00 in0.0 mm
05:27 AM 54.9°F12.7°C 54.3°F12.4°C 98% Calm Calm -- 30.13 in1020.3 mb - 0.00 in0.0 mm 0.00 in0.0 mm
05:32 AM 54.9°F12.7°C 54.0°F12.2°C 97% Calm Calm -- 30.13 in1020.3 mb - 0.00 in0.0 mm 0.00 in0.0 mm
05:37 AM 54.7°F12.6°C 53.8°F12.1°C 97% Calm Calm -- 30.14 in1020.7 mb - 0.00 in0.0 mm 0.00 in0.0 mm
05:42 AM 54.9°F12.7°C 54.0°F12.2°C 97% Calm Calm -- 30.13 in1020.3 mb - 0.00 in0.0 mm 0.00 in0.0 mm
05:47 AM 54.7°F12.6°C 53.8°F12.1°C 97% Calm Calm -- 30.13 in1020.3 mb - 0.00 in0.0 mm 0.00 in0.0 mm
05:52 AM 54.7°F12.6°C 53.8°F12.1°C 97% Calm Calm -- 30.13 in1020.3 mb - 0.00 in0.0 mm 0.00 in0.0 mm
05:57 AM 54.7°F12.6°C 53.8°F12.1°C 97% Calm Calm -- 30.13 in1020.3 mb - 0.00 in0.0 mm 0.00 in0.0 mm
06:02 AM 54.3°F12.4°C 53.4°F11.9°C 97% Calm Calm -- 30.13 in1020.3 mb - 0.00 in0.0 mm 0.00 in0.0 mm
06:07 AM 54.3°F12.4°C 53.4°F11.9°C 97% 0.9 mph WNW1.4 kmh WNW 2.9 mph4.7 kmh 30.13 in1020.3 mb - 0.00 in0.0 mm 0.00 in0.0 mm
06:12 AM 54.5°F12.5°C 53.6°F12.0°C 97% 0.9 mph NNE1.4 kmh NNE -- 30.13 in1020.3 mb - 0.00 in0.0 mm 0.00 in0.0 mm
06:17 AM 54.7°F12.6°C 53.8°F12.1°C 97% Calm Calm -- 30.13 in1020.3 mb - 0.00 in0.0 mm 0.00 in0.0 mm
06:22 AM 54.7°F12.6°C 53.6°F12.0°C 96% Calm Calm -- 30.13 in1020.3 mb - 0.00 in0.0 mm 0.00 in0.0 mm
06:27 AM 54.7°F12.6°C 53.6°F12.0°C 96% Calm Calm -- 30.13 in1020.3 mb - 0.00 in0.0 mm 0.00 in0.0 mm
06:32 AM 54.9°F12.7°C 53.8°F12.1°C 96% Calm Calm -- 30.13 in1020.3 mb - 0.00 in0.0 mm 0.00 in0.0 mm
06:37 AM 55.0°F12.8°C 54.0°F12.2°C 96% Calm Calm 0.9 mph1.4 kmh 30.13 in1020.3 mb - 0.00 in0.0 mm 0.00 in0.0 mm
06:42 AM 55.0°F12.8°C 54.0°F12.2°C 96% 0.9 mph NNW1.4 kmh NNW 2.0 mph3.2 kmh 30.13 in1020.3 mb - 0.00 in0.0 mm 0.00 in0.0 mm
06:47 AM 55.0°F12.8°C 53.6°F12.0°C 95% 0.9 mph NNW1.4 kmh NNW 4.0 mph6.4 kmh 30.13 in1020.3 mb - 0.00 in0.0 mm 0.00 in0.0 mm
06:52 AM 55.2°F12.9°C 53.8°F12.1°C 95% 0.9 mph N1.4 kmh N -- 30.14 in1020.7 mb - 0.00 in0.0 mm 0.00 in0.0 mm
06:57 AM 55.2°F12.9°C 53.8°F12.1°C 95% 2.0 mph NNW3.2 kmh NNW -- 30.13 in1020.3 mb - 0.00 in0.0 mm 0.00 in0.0 mm
07:02 AM 55.6°F13.1°C 54.1°F12.3°C 95% 0.9 mph N1.4 kmh N -- 30.14 in1020.7 mb - 0.00 in0.0 mm 0.00 in0.0 mm
07:07 AM 55.6°F13.1°C 54.1°F12.3°C 95% Calm Calm -- 30.14 in1020.7 mb - 0.00 in0.0 mm 0.00 in0.0 mm
07:12 AM 55.8°F13.2°C 54.3°F12.4°C 95% Calm Calm -- 30.14 in1020.7 mb - 0.00 in0.0 mm 0.00 in0.0 mm
07:17 AM 55.6°F13.1°C 54.1°F12.3°C 95% Calm Calm -- 30.14 in1020.7 mb - 0.00 in0.0 mm 0.00 in0.0 mm
07:22 AM 55.4°F13.0°C 54.0°F12.2°C 95% Calm Calm -- 30.15 in1021.0 mb - 0.00 in0.0 mm 0.00 in0.0 mm
07:27 AM 55.2°F12.9°C 53.8°F12.1°C 95% Calm Calm -- 30.15 in1021.0 mb - 0.00 in0.0 mm 0.00 in0.0 mm
07:32 AM 55.6°F13.1°C 54.5°F12.5°C 96% Calm Calm -- 30.15 in1021.0 mb - 0.00 in0.0 mm 0.00 in0.0 mm
07:37 AM 55.6°F13.1°C 54.5°F12.5°C 96% Calm Calm -- 30.15 in1021.0 mb - 0.00 in0.0 mm 0.00 in0.0 mm
07:42 AM 55.8°F13.2°C 54.7°F12.6°C 96% Calm Calm -- 30.15 in1021.0 mb - 0.00 in0.0 mm 0.00 in0.0 mm
07:47 AM 55.8°F13.2°C 54.7°F12.6°C 96% Calm Calm -- 30.15 in1021.0 mb - 0.00 in0.0 mm 0.00 in0.0 mm
07:52 AM 56.5°F13.6°C 55.4°F13.0°C 96% Calm Calm -- 30.15 in1021.0 mb - 0.00 in0.0 mm 0.00 in0.0 mm
07:57 AM 56.3°F13.5°C 55.2°F12.9°C 96% Calm Calm -- 30.15 in1021.0 mb - 0.00 in0.0 mm 0.00 in0.0 mm
08:02 AM 56.3°F13.5°C 55.2°F12.9°C 96% Calm Calm -- 30.15 in1021.0 mb - 0.00 in0.0 mm 0.00 in0.0 mm
08:07 AM 56.1°F13.4°C 54.7°F12.6°C 95% Calm Calm -- 30.15 in1021.0 mb - 0.00 in0.0 mm 0.00 in0.0 mm
08:12 AM 56.3°F13.5°C 54.9°F12.7°C 95% Calm Calm -- 30.15 in1021.0 mb - 0.00 in0.0 mm 0.00 in0.0 mm
08:17 AM 56.3°F13.5°C 54.9°F12.7°C 95% Calm Calm -- 30.15 in1021.0 mb - 0.00 in0.0 mm 0.00 in0.0 mm
08:22 AM 56.7°F13.7°C 55.2°F12.9°C 95% Calm Calm -- 30.15 in1021.0 mb - 0.00 in0.0 mm 0.00 in0.0 mm
08:27 AM 56.8°F13.8°C 55.4°F13.0°C 95% Calm Calm -- 30.15 in1021.0 mb - 0.00 in0.0 mm 0.00 in0.0 mm
08:32 AM 56.8°F13.8°C 55.2°F12.9°C 94% Calm Calm -- 30.15 in1021.0 mb - 0.00 in0.0 mm 0.00 in0.0 mm
08:37 AM 57.0°F13.9°C 55.2°F12.9°C 94% Calm Calm -- 30.15 in1021.0 mb - 0.00 in0.0 mm 0.00 in0.0 mm
08:42 AM 57.4°F14.1°C 55.6°F13.1°C 94% Calm Calm -- 30.15 in1021.0 mb - 0.00 in0.0 mm 0.00 in0.0 mm
08:47 AM 57.0°F13.9°C 55.6°F13.1°C 95% Calm Calm -- 30.15 in1021.0 mb - 0.00 in0.0 mm 0.00 in0.0 mm
08:52 AM 57.0°F13.9°C 55.6°F13.1°C 95% Calm Calm -- 30.16 in1021.3 mb - 0.00 in0.0 mm 0.00 in0.0 mm
08:57 AM 57.0°F13.9°C 55.6°F13.1°C 95% Calm Calm -- 30.15 in1021.0 mb - 0.00 in0.0 mm 0.00 in0.0 mm
09:02 AM 56.8°F13.8°C 55.4°F13.0°C 95% Calm Calm 2.9 mph4.7 kmh 30.16 in1021.3 mb - 0.00 in0.0 mm 0.00 in0.0 mm
09:07 AM 56.7°F13.7°C 55.2°F12.9°C 95% 2.0 mph NW3.2 kmh NW 0.9 mph1.4 kmh 30.16 in1021.3 mb - 0.00 in0.0 mm 0.00 in0.0 mm
09:12 AM 56.5°F13.6°C 55.0°F12.8°C 95% 0.9 mph NW1.4 kmh NW -- 30.17 in1021.7 mb - 0.00 in0.0 mm 0.00 in0.0 mm
09:17 AM 56.7°F13.7°C 55.2°F12.9°C 95% Calm Calm -- 30.17 in1021.7 mb - 0.00 in0.0 mm 0.00 in0.0 mm
09:22 AM 56.8°F13.8°C 55.4°F13.0°C 95% Calm Calm -- 30.17 in1021.7 mb - 0.00 in0.0 mm 0.00 in0.0 mm
09:27 AM 57.2°F14.0°C 55.8°F13.2°C 95% Calm Calm -- 30.17 in1021.7 mb - 0.00 in0.0 mm 0.00 in0.0 mm
09:32 AM 57.0°F13.9°C 55.6°F13.1°C 95% Calm Calm -- 30.17 in1021.7 mb - 0.00 in0.0 mm 0.00 in0.0 mm
09:37 AM 57.0°F13.9°C 55.6°F13.1°C 95% Calm Calm -- 30.17 in1021.7 mb - 0.00 in0.0 mm 0.00 in0.0 mm
09:42 AM 57.0°F13.9°C 55.6°F13.1°C 95% Calm Calm -- 30.17 in1021.7 mb - 0.00 in0.0 mm 0.00 in0.0 mm
09:47 AM 56.8°F13.8°C 55.4°F13.0°C 95% Calm Calm -- 30.18 in1022.0 mb - 0.00 in0.0 mm 0.00 in0.0 mm
09:52 AM 56.7°F13.7°C 55.6°F13.1°C 96% Calm Calm -- 30.18 in1022.0 mb - 0.00 in0.0 mm 0.00 in0.0 mm
09:57 AM 56.7°F13.7°C 55.6°F13.1°C 96% Calm Calm -- 30.18 in1022.0 mb - 0.00 in0.0 mm 0.00 in0.0 mm
10:02 AM 56.8°F13.8°C 55.8°F13.2°C 96% Calm Calm -- 30.18 in1022.0 mb - 0.00 in0.0 mm 0.00 in0.0 mm
10:07 AM 56.7°F13.7°C 55.6°F13.1°C 96% Calm Calm -- 30.18 in1022.0 mb - 0.00 in0.0 mm 0.00 in0.0 mm
10:12 AM 56.8°F13.8°C 55.8°F13.2°C 96% Calm Calm -- 30.18 in1022.0 mb - 0.00 in0.0 mm 0.00 in0.0 mm
10:17 AM 57.0°F13.9°C 55.9°F13.3°C 96% Calm Calm -- 30.19 in1022.4 mb - 0.00 in0.0 mm 0.00 in0.0 mm
10:22 AM 57.0°F13.9°C 55.9°F13.3°C 96% Calm Calm -- 30.19 in1022.4 mb - 0.00 in0.0 mm 0.00 in0.0 mm
10:27 AM 56.7°F13.7°C 55.2°F12.9°C 95% 0.9 mph NW1.4 kmh NW 2.0 mph3.2 kmh 30.19 in1022.4 mb - 0.00 in0.0 mm 0.00 in0.0 mm
10:32 AM 56.7°F13.7°C 55.0°F12.8°C 94% 2.0 mph NW3.2 kmh NW 2.0 mph3.2 kmh 30.19 in1022.4 mb - 0.00 in0.0 mm 0.00 in0.0 mm
10:37 AM 57.0°F13.9°C 55.2°F12.9°C 94% 2.0 mph NW3.2 kmh NW 2.9 mph4.7 kmh 30.19 in1022.4 mb - 0.00 in0.0 mm 0.00 in0.0 mm
10:42 AM 57.2°F14.0°C 55.2°F12.9°C 93% 2.9 mph NW4.7 kmh NW -- 30.19 in1022.4 mb - 0.00 in0.0 mm 0.00 in0.0 mm
10:47 AM 57.6°F14.2°C 55.2°F12.9°C 92% 2.0 mph NW3.2 kmh NW 2.9 mph4.7 kmh 30.20 in1022.7 mb - 0.00 in0.0 mm 0.00 in0.0 mm
10:52 AM 57.6°F14.2°C 55.0°F12.8°C 91% 0.9 mph WNW1.4 kmh WNW -- 30.19 in1022.4 mb - 0.00 in0.0 mm 0.00 in0.0 mm
10:57 AM 57.7°F14.3°C 55.2°F12.9°C 91% 0.9 mph NW1.4 kmh NW -- 30.19 in1022.4 mb - 0.00 in0.0 mm 0.00 in0.0 mm
11:02 AM 57.6°F14.2°C 55.0°F12.8°C 91% 0.9 mph NW1.4 kmh NW -- 30.20 in1022.7 mb - 0.00 in0.0 mm 0.00 in0.0 mm
11:07 AM 57.6°F14.2°C 54.7°F12.6°C 90% 0.9 mph NW1.4 kmh NW -- 30.19 in1022.4 mb - 0.00 in0.0 mm 0.00 in0.0 mm
11:12 AM 57.9°F14.4°C 55.2°F12.9°C 91% Calm Calm -- 30.19 in1022.4 mb - 0.00 in0.0 mm 0.01 in0.3 mm
11:17 AM 57.7°F14.3°C 55.2°F12.9°C 91% Calm Calm -- 30.20 in1022.7 mb - 0.00 in0.0 mm 0.01 in0.3 mm
11:22 AM 57.9°F14.4°C 55.2°F12.9°C 91% Calm Calm -- 30.19 in1022.4 mb - 0.00 in0.0 mm 0.01 in0.3 mm
11:27 AM 57.7°F14.3°C 55.2°F12.9°C 91% Calm Calm -- 30.19 in1022.4 mb - 0.00 in0.0 mm 0.01 in0.3 mm
11:32 AM 57.7°F14.3°C 55.2°F12.9°C 91% Calm Calm -- 30.19 in1022.4 mb - 0.00 in0.0 mm 0.01 in0.3 mm
11:37 AM 57.9°F14.4°C 55.2°F12.9°C 91% Calm Calm -- 30.19 in1022.4 mb - 0.00 in0.0 mm 0.01 in0.3 mm
11:42 AM 58.3°F14.6°C 55.6°F13.1°C 91% Calm Calm -- 30.19 in1022.4 mb - 0.00 in0.0 mm 0.01 in0.3 mm
11:47 AM 58.3°F14.6°C 55.6°F13.1°C 91% Calm Calm -- 30.19 in1022.4 mb - 0.00 in0.0 mm 0.01 in0.3 mm
11:52 AM 58.1°F14.5°C 55.2°F12.9°C 90% 0.9 mph 1.4 kmh 2.0 mph3.2 kmh 30.19 in1022.4 mb - 0.00 in0.0 mm 0.01 in0.3 mm
11:57 AM 57.9°F14.4°C 55.2°F12.9°C 91% 0.9 mph NW1.4 kmh NW 6.0 mph9.7 kmh 30.19 in1022.4 mb - 0.00 in0.0 mm 0.01 in0.3 mm
12:02 PM 57.6°F14.2°C 55.0°F12.8°C 91% 2.0 mph NW3.2 kmh NW 2.9 mph4.7 kmh 30.19 in1022.4 mb - 0.00 in0.0 mm 0.01 in0.3 mm
12:07 PM 57.2°F14.0°C 54.7°F12.6°C 91% 2.9 mph NW4.7 kmh NW 2.9 mph4.7 kmh 30.19 in1022.4 mb - 0.00 in0.0 mm 0.01 in0.3 mm
12:12 PM 57.0°F13.9°C 54.1°F12.3°C 90% 2.9 mph NW4.7 kmh NW 2.9 mph4.7 kmh 30.19 in1022.4 mb - 0.00 in0.0 mm 0.01 in0.3 mm
12:17 PM 56.8°F13.8°C 54.0°F12.2°C 90% 2.0 mph NW3.2 kmh NW -- 30.19 in1022.4 mb - 0.00 in0.0 mm 0.01 in0.3 mm
12:22 PM 56.7°F13.7°C 53.8°F12.1°C 90% 2.0 mph WNW3.2 kmh WNW 2.9 mph4.7 kmh 30.19 in1022.4 mb - 0.00 in0.0 mm 0.02 in0.5 mm
12:27 PM 56.7°F13.7°C 54.1°F12.3°C 91% 0.9 mph WNW1.4 kmh WNW 0.9 mph1.4 kmh 30.19 in1022.4 mb - 0.00 in0.0 mm 0.02 in0.5 mm
12:32 PM 56.5°F13.6°C 54.0°F12.2°C 91% 2.0 mph NW3.2 kmh NW 2.0 mph3.2 kmh 30.19 in1022.4 mb - 0.00 in0.0 mm 0.02 in0.5 mm
12:37 PM 56.5°F13.6°C 54.0°F12.2°C 91% 2.0 mph NW3.2 kmh NW 0.9 mph1.4 kmh 30.19 in1022.4 mb - 0.00 in0.0 mm 0.02 in0.5 mm
12:42 PM 56.7°F13.7°C 54.3°F12.4°C 92% 0.9 mph NW1.4 kmh NW -- 30.19 in1022.4 mb - 0.00 in0.0 mm 0.02 in0.5 mm
12:47 PM 56.7°F13.7°C 54.3°F12.4°C 92% 0.9 mph NNW1.4 kmh NNW -- 30.19 in1022.4 mb - 0.05 in1.3 mm 0.02 in0.5 mm
12:52 PM 56.5°F13.6°C 54.1°F12.3°C 92% 0.9 mph NW1.4 kmh NW -- 30.19 in1022.4 mb - 0.05 in1.3 mm 0.03 in0.8 mm
12:57 PM 56.5°F13.6°C 54.1°F12.3°C 92% 0.9 mph NW1.4 kmh NW 2.0 mph3.2 kmh 30.20 in1022.7 mb - 0.06 in1.5 mm 0.04 in1.0 mm
01:02 PM 56.5°F13.6°C 54.1°F12.3°C 92% 0.9 mph NW1.4 kmh NW 0.9 mph1.4 kmh 30.20 in1022.7 mb - 0.08 in2.0 mm 0.04 in1.0 mm
01:07 PM 56.5°F13.6°C 54.5°F12.5°C 93% 0.9 mph N1.4 kmh N 2.0 mph3.2 kmh 30.20 in1022.7 mb - 0.09 in2.3 mm 0.05 in1.3 mm
01:12 PM 56.5°F13.6°C 54.5°F12.5°C 93% 0.9 mph N1.4 kmh N -- 30.20 in1022.7 mb - 0.07 in1.8 mm 0.06 in1.5 mm
01:17 PM 56.5°F13.6°C 54.5°F12.5°C 93% 0.9 mph NW1.4 kmh NW -- 30.20 in1022.7 mb - 0.07 in1.8 mm 0.06 in1.5 mm
01:22 PM 56.3°F13.5°C 54.3°F12.4°C 93% 2.0 mph NW3.2 kmh NW 2.0 mph3.2 kmh 30.20 in1022.7 mb - 0.07 in1.8 mm 0.07 in1.8 mm
01:27 PM 56.1°F13.4°C 54.1°F12.3°C 93% 2.9 mph NW4.7 kmh NW 2.0 mph3.2 kmh 30.20 in1022.7 mb - 0.08 in2.0 mm 0.08 in2.0 mm
01:32 PM 56.5°F13.6°C 54.9°F12.7°C 94% 2.0 mph NW3.2 kmh NW 2.0 mph3.2 kmh 30.21 in1023.0 mb - 0.10 in2.5 mm 0.08 in2.0 mm
01:37 PM 56.3°F13.5°C 54.7°F12.6°C 94% 2.0 mph NW3.2 kmh NW -- 30.21 in1023.0 mb - 0.06 in1.5 mm 0.09 in2.3 mm
01:42 PM 56.1°F13.4°C 54.5°F12.5°C 94% 2.0 mph NW3.2 kmh NW 2.0 mph3.2 kmh 30.21 in1023.0 mb - 0.05 in1.3 mm 0.09 in2.3 mm
01:47 PM 56.3°F13.5°C 54.7°F12.6°C 94% 2.0 mph WNW3.2 kmh WNW 2.0 mph3.2 kmh 30.22 in1023.4 mb - 0.06 in1.5 mm 0.09 in2.3 mm
01:52 PM 56.1°F13.4°C 54.5°F12.5°C 94% 2.0 mph NW3.2 kmh NW 4.9 mph7.9 kmh 30.22 in1023.4 mb - 0.10 in2.5 mm 0.10 in2.5 mm
01:57 PM 55.9°F13.3°C 54.3°F12.4°C 94% 0.9 mph N1.4 kmh N 0.9 mph1.4 kmh 30.22 in1023.4 mb - 0.09 in2.3 mm 0.11 in2.8 mm
02:02 PM 55.9°F13.3°C 54.3°F12.4°C 94% 0.9 mph N1.4 kmh N -- 30.22 in1023.4 mb - 0.09 in2.3 mm 0.12 in3.0 mm
02:07 PM 55.9°F13.3°C 54.3°F12.4°C 94% 0.9 mph NNW1.4 kmh NNW -- 30.22 in1023.4 mb - 0.09 in2.3 mm 0.13 in3.3 mm
02:12 PM 55.8°F13.2°C 54.1°F12.3°C 94% 0.9 mph N1.4 kmh N 0.9 mph1.4 kmh 30.23 in1023.7 mb - 0.08 in2.0 mm 0.13 in3.3 mm
02:17 PM 55.6°F13.1°C 54.0°F12.2°C 94% 0.9 mph NW1.4 kmh NW -- 30.23 in1023.7 mb - 0.06 in1.5 mm 0.13 in3.3 mm
02:22 PM 55.6°F13.1°C 54.1°F12.3°C 95% 0.9 mph NNW1.4 kmh NNW -- 30.23 in1023.7 mb - 0.09 in2.3 mm 0.14 in3.6 mm
02:27 PM 55.6°F13.1°C 54.1°F12.3°C 95% Calm Calm -- 30.23 in1023.7 mb - 0.08 in2.0 mm 0.15 in3.8 mm
02:32 PM 55.6°F13.1°C 54.1°F12.3°C 95% Calm Calm -- 30.23 in1023.7 mb - 0.06 in1.5 mm 0.15 in3.8 mm
02:37 PM 55.8°F13.2°C 54.3°F12.4°C 95% Calm Calm -- 30.23 in1023.7 mb - 0.06 in1.5 mm 0.16 in4.1 mm
02:42 PM 55.6°F13.1°C 54.1°F12.3°C 95% Calm Calm -- 30.23 in1023.7 mb - 0.06 in1.5 mm 0.17 in4.3 mm
02:47 PM 55.8°F13.2°C 54.3°F12.4°C 95% Calm Calm -- 30.22 in1023.4 mb - 0.05 in1.3 mm 0.17 in4.3 mm
02:52 PM 55.9°F13.3°C 54.9°F12.7°C 96% Calm Calm -- 30.22 in1023.4 mb - 0.05 in1.3 mm 0.17 in4.3 mm
02:57 PM 55.9°F13.3°C 54.9°F12.7°C 96% Calm Calm -- 30.23 in1023.7 mb - 0.05 in1.3 mm 0.17 in4.3 mm
03:02 PM 55.9°F13.3°C 54.9°F12.7°C 96% Calm Calm -- 30.23 in1023.7 mb - 0.05 in1.3 mm 0.18 in4.6 mm
03:07 PM 55.9°F13.3°C 54.9°F12.7°C 96% Calm Calm -- 30.23 in1023.7 mb - 0.05 in1.3 mm 0.19 in4.8 mm
03:12 PM 55.8°F13.2°C 54.7°F12.6°C 96% Calm Calm -- 30.23 in1023.7 mb - 0.09 in2.3 mm 0.19 in4.8 mm
03:17 PM 55.8°F13.2°C 54.7°F12.6°C 96% Calm Calm -- 30.23 in1023.7 mb - 0.06 in1.5 mm 0.20 in5.1 mm
03:22 PM 55.6°F13.1°C 54.1°F12.3°C 95% 0.9 mph NNW1.4 kmh NNW 2.0 mph3.2 kmh 30.24 in1024.0 mb - 0.06 in1.5 mm 0.20 in5.1 mm
03:27 PM 55.6°F13.1°C 54.5°F12.5°C 96% 0.9 mph NW1.4 kmh NW -- 30.24 in1024.0 mb - 0.07 in1.8 mm 0.20 in5.1 mm
03:32 PM 55.4°F13.0°C 54.0°F12.2°C 95% Calm Calm -- 30.24 in1024.0 mb - 0.06 in1.5 mm 0.21 in5.3 mm
03:37 PM 55.8°F13.2°C 54.3°F12.4°C 95% Calm Calm 0.9 mph1.4 kmh 30.25 in1024.4 mb - 0.06 in1.5 mm 0.22 in5.6 mm
03:42 PM 55.6°F13.1°C 54.1°F12.3°C 95% Calm Calm -- 30.25 in1024.4 mb - 0.06 in1.5 mm 0.22 in5.6 mm
03:47 PM 55.6°F13.1°C 54.1°F12.3°C 95% Calm Calm -- 30.25 in1024.4 mb - 0.06 in1.5 mm 0.23 in5.8 mm
03:52 PM 55.9°F13.3°C 54.9°F12.7°C 96% Calm Calm -- 30.25 in1024.4 mb - 0.05 in1.3 mm 0.23 in5.8 mm
03:57 PM 55.9°F13.3°C 54.9°F12.7°C 96% Calm Calm -- 30.25 in1024.4 mb - 0.08 in2.0 mm 0.24 in6.1 mm
04:02 PM 55.6°F13.1°C 54.1°F12.3°C 95% Calm Calm -- 30.25 in1024.4 mb - 0.08 in2.0 mm 0.24 in6.1 mm
04:07 PM 55.8°F13.2°C 54.3°F12.4°C 95% Calm Calm -- 30.25 in1024.4 mb - 0.06 in1.5 mm 0.25 in6.4 mm
04:12 PM 55.8°F13.2°C 54.3°F12.4°C 95% Calm Calm -- 30.25 in1024.4 mb - 0.07 in1.8 mm 0.25 in6.4 mm
04:17 PM 55.2°F12.9°C 53.6°F12.0°C 94% Calm Calm -- 30.25 in1024.4 mb - 0.07 in1.8 mm 0.26 in6.6 mm
04:22 PM 55.2°F12.9°C 53.6°F12.0°C 94% Calm Calm -- 30.25 in1024.4 mb - 0.05 in1.3 mm 0.26 in6.6 mm
04:27 PM 55.2°F12.9°C 53.6°F12.0°C 94% Calm Calm -- 30.25 in1024.4 mb - 0.05 in1.3 mm 0.27 in6.9 mm
04:32 PM 55.2°F12.9°C 53.6°F12.0°C 94% Calm Calm -- 30.25 in1024.4 mb - 0.05 in1.3 mm 0.27 in6.9 mm
04:37 PM 55.0°F12.8°C 53.4°F11.9°C 94% Calm Calm -- 30.25 in1024.4 mb - 0.04 in1.0 mm 0.27 in6.9 mm
04:42 PM 54.9°F12.7°C 52.9°F11.6°C 93% 0.9 mph NNW1.4 kmh NNW 0.9 mph1.4 kmh 30.25 in1024.4 mb - 0.04 in1.0 mm 0.28 in7.1 mm
04:47 PM 54.7°F12.6°C 52.7°F11.5°C 93% 0.9 mph WNW1.4 kmh WNW -- 30.26 in1024.7 mb - 0.03 in0.8 mm 0.28 in7.1 mm
04:52 PM 54.7°F12.6°C 52.7°F11.5°C 93% 0.9 mph NW1.4 kmh NW -- 30.26 in1024.7 mb - 0.03 in0.8 mm 0.28 in7.1 mm
04:57 PM 54.7°F12.6°C 52.7°F11.5°C 93% Calm Calm 2.9 mph4.7 kmh 30.27 in1025.1 mb - 0.06 in1.5 mm 0.28 in7.1 mm
05:02 PM 54.3°F12.4°C 52.3°F11.3°C 93% 0.9 mph N1.4 kmh N -- 30.27 in1025.1 mb - 0.06 in1.5 mm 0.29 in7.4 mm
05:07 PM 54.3°F12.4°C 52.7°F11.5°C 94% 0.9 mph N1.4 kmh N -- 30.27 in1025.1 mb - 0.05 in1.3 mm 0.29 in7.4 mm
05:12 PM 54.0°F12.2°C 52.3°F11.3°C 94% Calm Calm -- 30.27 in1025.1 mb - 0.05 in1.3 mm 0.30 in7.6 mm
05:17 PM 53.8°F12.1°C 52.2°F11.2°C 94% Calm Calm -- 30.27 in1025.1 mb - 0.05 in1.3 mm 0.30 in7.6 mm
05:22 PM 53.2°F11.8°C 51.6°F10.9°C 94% Calm Calm -- 30.27 in1025.1 mb - 0.05 in1.3 mm 0.31 in7.9 mm
05:27 PM 53.2°F11.8°C 51.6°F10.9°C 94% Calm Calm -- 30.27 in1025.1 mb - 0.05 in1.3 mm 0.31 in7.9 mm
05:32 PM 53.1°F11.7°C 51.4°F10.8°C 94% Calm Calm -- 30.27 in1025.1 mb - 0.05 in1.3 mm 0.31 in7.9 mm
05:37 PM 53.1°F11.7°C 51.6°F10.9°C 95% Calm Calm -- 30.28 in1025.4 mb - 0.05 in1.3 mm 0.31 in7.9 mm
05:42 PM 52.9°F11.6°C 51.3°F10.7°C 94% Calm Calm -- 30.28 in1025.4 mb - 0.05 in1.3 mm 0.32 in8.1 mm
05:47 PM 52.9°F11.6°C 51.4°F10.8°C 95% Calm Calm -- 30.28 in1025.4 mb - 0.04 in1.0 mm 0.32 in8.1 mm
05:52 PM 52.7°F11.5°C 51.3°F10.7°C 95% Calm Calm -- 30.28 in1025.4 mb - 0.03 in0.8 mm 0.32 in8.1 mm
05:57 PM 52.5°F11.4°C 51.1°F10.6°C 95% Calm Calm -- 30.28 in1025.4 mb - 0.03 in0.8 mm 0.33 in8.4 mm
06:02 PM 52.9°F11.6°C 51.4°F10.8°C 95% Calm Calm -- 30.29 in1025.7 mb - 0.03 in0.8 mm 0.33 in8.4 mm
06:07 PM 52.5°F11.4°C 51.1°F10.6°C 95% Calm Calm -- 30.29 in1025.7 mb - 0.04 in1.0 mm 0.33 in8.4 mm
06:12 PM 52.5°F11.4°C 51.1°F10.6°C 95% Calm Calm -- 30.29 in1025.7 mb - 0.04 in1.0 mm 0.34 in8.6 mm
06:17 PM 52.3°F11.3°C 50.9°F10.5°C 95% Calm Calm -- 30.30 in1026.1 mb - 0.03 in0.8 mm 0.34 in8.6 mm
06:22 PM 52.2°F11.2°C 50.7°F10.4°C 95% Calm Calm -- 30.30 in1026.1 mb - 0.00 in0.0 mm 0.34 in8.6 mm
06:27 PM 52.0°F11.1°C 50.5°F10.3°C 95% Calm Calm -- 30.30 in1026.1 mb - 0.00 in0.0 mm 0.35 in8.9 mm
06:32 PM 52.0°F11.1°C 50.5°F10.3°C 95% Calm Calm -- 30.30 in1026.1 mb - 0.00 in0.0 mm 0.35 in8.9 mm
06:37 PM 52.2°F11.2°C 50.7°F10.4°C 95% Calm Calm -- 30.30 in1026.1 mb - 0.00 in0.0 mm 0.35 in8.9 mm
06:42 PM 52.2°F11.2°C 50.7°F10.4°C 95% Calm Calm -- 30.31 in1026.4 mb - 0.03 in0.8 mm 0.35 in8.9 mm
06:47 PM 52.0°F11.1°C 50.5°F10.3°C 95% Calm Calm -- 30.31 in1026.4 mb - 0.03 in0.8 mm 0.35 in8.9 mm
06:52 PM 52.0°F11.1°C 50.5°F10.3°C 95% Calm Calm -- 30.31 in1026.4 mb - 0.03 in0.8 mm 0.35 in8.9 mm
06:57 PM 52.2°F11.2°C 51.1°F10.6°C 96% Calm Calm -- 30.31 in1026.4 mb - 0.03 in0.8 mm 0.36 in9.1 mm
07:02 PM 52.0°F11.1°C 50.9°F10.5°C 96% Calm Calm -- 30.32 in1026.8 mb - 0.03 in0.8 mm 0.36 in9.1 mm
07:07 PM 52.0°F11.1°C 50.9°F10.5°C 96% Calm Calm -- 30.32 in1026.8 mb - 0.03 in0.8 mm 0.36 in9.1 mm
07:12 PM 52.0°F11.1°C 50.9°F10.5°C 96% Calm Calm -- 30.32 in1026.8 mb - 0.03 in0.8 mm 0.36 in9.1 mm
07:17 PM 52.0°F11.1°C 50.9°F10.5°C 96% Calm Calm -- 30.32 in1026.8 mb - 0.03 in0.8 mm 0.37 in9.4 mm
07:22 PM 52.0°F11.1°C 50.9°F10.5°C 96% Calm Calm -- 30.32 in1026.8 mb - 0.03 in0.8 mm 0.37 in9.4 mm
07:27 PM 52.0°F11.1°C 50.9°F10.5°C 96% Calm Calm -- 30.32 in1026.8 mb - 0.00 in0.0 mm 0.37 in9.4 mm
07:32 PM 51.8°F11.0°C 50.7°F10.4°C 96% Calm Calm -- 30.32 in1026.8 mb - 0.00 in0.0 mm 0.38 in9.7 mm
07:37 PM 52.0°F11.1°C 50.9°F10.5°C 96% Calm Calm -- 30.32 in1026.8 mb - 0.00 in0.0 mm 0.38 in9.7 mm
07:42 PM 51.8°F11.0°C 50.7°F10.4°C 96% Calm Calm -- 30.33 in1027.1 mb - 0.00 in0.0 mm 0.38 in9.7 mm
07:47 PM 51.8°F11.0°C 50.7°F10.4°C 96% Calm Calm -- 30.33 in1027.1 mb - 0.03 in0.8 mm 0.39 in9.9 mm
07:52 PM 51.8°F11.0°C 50.7°F10.4°C 96% Calm Calm -- 30.33 in1027.1 mb - 0.03 in0.8 mm 0.39 in9.9 mm
07:57 PM 51.8°F11.0°C 50.7°F10.4°C 96% Calm Calm -- 30.33 in1027.1 mb - 0.03 in0.8 mm 0.39 in9.9 mm
08:02 PM 51.8°F11.0°C 50.9°F10.5°C 97% Calm Calm -- 30.33 in1027.1 mb - 0.00 in0.0 mm 0.39 in9.9 mm
08:07 PM 51.6°F10.9°C 50.5°F10.3°C 96% Calm Calm -- 30.33 in1027.1 mb - 0.00 in0.0 mm 0.39 in9.9 mm
08:12 PM 51.6°F10.9°C 50.5°F10.3°C 96% Calm Calm -- 30.34 in1027.4 mb - 0.00 in0.0 mm 0.39 in9.9 mm
08:17 PM 51.6°F10.9°C 50.7°F10.4°C 97% Calm Calm -- 30.34 in1027.4 mb - 0.00 in0.0 mm 0.39 in9.9 mm
08:22 PM 51.6°F10.9°C 50.7°F10.4°C 97% Calm Calm -- 30.34 in1027.4 mb - 0.00 in0.0 mm 0.39 in9.9 mm
08:27 PM 51.8°F11.0°C 50.9°F10.5°C 97% Calm Calm -- 30.33 in1027.1 mb - 0.00 in0.0 mm 0.39 in9.9 mm
08:32 PM 51.8°F11.0°C 50.9°F10.5°C 97% Calm Calm -- 30.33 in1027.1 mb - 0.00 in0.0 mm 0.39 in9.9 mm
08:37 PM 51.8°F11.0°C 50.9°F10.5°C 97% Calm Calm -- 30.34 in1027.4 mb - 0.00 in0.0 mm 0.39 in9.9 mm
08:42 PM 51.6°F10.9°C 50.7°F10.4°C 97% Calm Calm -- 30.34 in1027.4 mb - 0.00 in0.0 mm 0.39 in9.9 mm
08:47 PM 51.6°F10.9°C 50.7°F10.4°C 97% Calm Calm -- 30.34 in1027.4 mb - 0.00 in0.0 mm 0.39 in9.9 mm
08:52 PM 51.4°F10.8°C 50.5°F10.3°C 97% Calm Calm -- 30.34 in1027.4 mb - 0.00 in0.0 mm 0.39 in9.9 mm
08:57 PM 51.4°F10.8°C 50.5°F10.3°C 97% Calm Calm -- 30.33 in1027.1 mb - 0.00 in0.0 mm 0.39 in9.9 mm
09:02 PM 51.4°F10.8°C 50.5°F10.3°C 97% Calm Calm -- 30.34 in1027.4 mb - 0.00 in0.0 mm 0.39 in9.9 mm
09:07 PM 51.4°F10.8°C 50.5°F10.3°C 97% Calm Calm -- 30.34 in1027.4 mb - 0.00 in0.0 mm 0.39 in9.9 mm
09:12 PM 51.3°F10.7°C 50.4°F10.2°C 97% Calm Calm -- 30.34 in1027.4 mb - 0.00 in0.0 mm 0.39 in9.9 mm
09:17 PM 51.3°F10.7°C 50.4°F10.2°C 97% Calm Calm -- 30.33 in1027.1 mb - 0.00 in0.0 mm 0.39 in9.9 mm
09:22 PM 51.3°F10.7°C 50.4°F10.2°C 97% Calm Calm -- 30.34 in1027.4 mb - 0.00 in0.0 mm 0.39 in9.9 mm
09:27 PM 51.3°F10.7°C 50.4°F10.2°C 97% Calm Calm -- 30.33 in1027.1 mb - 0.00 in0.0 mm 0.39 in9.9 mm
09:32 PM 51.4°F10.8°C 50.5°F10.3°C 97% Calm Calm -- 30.33 in1027.1 mb - 0.00 in0.0 mm 0.39 in9.9 mm
09:37 PM 51.4°F10.8°C 50.5°F10.3°C 97% Calm Calm -- 30.34 in1027.4 mb - 0.00 in0.0 mm 0.39 in9.9 mm
09:42 PM 51.4°F10.8°C 50.5°F10.3°C 97% Calm Calm -- 30.34 in1027.4 mb - 0.00 in0.0 mm 0.39 in9.9 mm
09:47 PM 51.4°F10.8°C 50.5°F10.3°C 97% Calm Calm -- 30.34 in1027.4 mb - 0.00 in0.0 mm 0.39 in9.9 mm
09:52 PM 51.4°F10.8°C 50.5°F10.3°C 97% Calm Calm -- 30.34 in1027.4 mb - 0.00 in0.0 mm 0.39 in9.9 mm
09:57 PM 51.4°F10.8°C 50.5°F10.3°C 97% Calm Calm -- 30.35 in1027.8 mb - 0.00 in0.0 mm 0.39 in9.9 mm
10:02 PM 51.6°F10.9°C 50.7°F10.4°C 97% Calm Calm -- 30.35 in1027.8 mb - 0.00 in0.0 mm 0.39 in9.9 mm
10:07 PM 51.6°F10.9°C 50.7°F10.4°C 97% Calm Calm -- 30.35 in1027.8 mb - 0.00 in0.0 mm 0.39 in9.9 mm
10:12 PM 51.8°F11.0°C 50.9°F10.5°C 97% Calm Calm -- 30.35 in1027.8 mb - 0.00 in0.0 mm 0.39 in9.9 mm
10:17 PM 51.6°F10.9°C 50.7°F10.4°C 97% Calm Calm -- 30.35 in1027.8 mb - 0.00 in0.0 mm 0.39 in9.9 mm
10:22 PM 51.4°F10.8°C 50.5°F10.3°C 97% Calm Calm -- 30.35 in1027.8 mb - 0.00 in0.0 mm 0.39 in9.9 mm
10:27 PM 51.4°F10.8°C 50.5°F10.3°C 97% Calm Calm -- 30.35 in1027.8 mb - 0.00 in0.0 mm 0.39 in9.9 mm
10:32 PM 51.3°F10.7°C 50.4°F10.2°C 97% Calm Calm -- 30.35 in1027.8 mb - 0.00 in0.0 mm 0.39 in9.9 mm
10:37 PM 51.3°F10.7°C 50.4°F10.2°C 97% Calm Calm -- 30.34 in1027.4 mb - 0.00 in0.0 mm 0.39 in9.9 mm
10:42 PM 51.1°F10.6°C 50.2°F10.1°C 97% Calm Calm -- 30.35 in1027.8 mb - 0.00 in0.0 mm 0.39 in9.9 mm
10:47 PM 50.9°F10.5°C 50.0°F10.0°C 97% Calm Calm -- 30.35 in1027.8 mb - 0.00 in0.0 mm 0.39 in9.9 mm
10:52 PM 50.7°F10.4°C 49.8°F9.9°C 97% Calm Calm -- 30.35 in1027.8 mb - 0.00 in0.0 mm 0.39 in9.9 mm
10:57 PM 50.4°F10.2°C 49.5°F9.7°C 97% Calm Calm -- 30.35 in1027.8 mb - 0.00 in0.0 mm 0.39 in9.9 mm
11:02 PM 50.2°F10.1°C 49.3°F9.6°C 97% Calm Calm -- 30.35 in1027.8 mb - 0.00 in0.0 mm 0.39 in9.9 mm
11:07 PM 50.0°F10.0°C 49.1°F9.5°C 97% Calm Calm -- 30.35 in1027.8 mb - 0.00 in0.0 mm 4.34 in110.2 mm
11:12 PM 49.6°F9.8°C 48.7°F9.3°C 97% Calm Calm -- 30.35 in1027.8 mb - 0.00 in0.0 mm 4.34 in110.2 mm
11:17 PM 49.5°F9.7°C 48.6°F9.2°C 97% Calm Calm -- 30.35 in1027.8 mb - 0.00 in0.0 mm 4.34 in110.2 mm
11:22 PM 49.5°F9.7°C 48.6°F9.2°C 97% Calm Calm -- 30.35 in1027.8 mb - 0.00 in0.0 mm 4.34 in110.2 mm
11:27 PM 49.3°F9.6°C 48.4°F9.1°C 97% Calm Calm -- 30.35 in1027.8 mb - 0.00 in0.0 mm 4.34 in110.2 mm
11:32 PM 49.1°F9.5°C 48.2°F9.0°C 97% Calm Calm -- 30.35 in1027.8 mb - 0.00 in0.0 mm 0.01 in0.3 mm
11:37 PM 48.9°F9.4°C 48.0°F8.9°C 97% Calm Calm -- 30.35 in1027.8 mb - 0.00 in0.0 mm 0.01 in0.3 mm
11:42 PM 48.7°F9.3°C 47.8°F8.8°C 97% Calm Calm -- 30.35 in1027.8 mb - 0.00 in0.0 mm 0.01 in0.3 mm
11:47 PM 48.6°F9.2°C 47.7°F8.7°C 97% Calm Calm -- 30.35 in1027.8 mb - 0.00 in0.0 mm 0.01 in0.3 mm
11:52 PM 48.4°F9.1°C 47.5°F8.6°C 97% Calm Calm -- 30.35 in1027.8 mb - 0.00 in0.0 mm 0.01 in0.3 mm
11:57 PM 48.4°F9.1°C 47.5°F8.6°C 97% Calm Calm -- 30.35 in1027.8 mb - 0.00 in0.0 mm 0.01 in0.3 mm